sensor_id;sensor_type;location;lat;lon;timestamp;P1;durP1;ratioP1;P2;durP2;ratioP2
79229;SDS011;68663;49.122;17.544;2023-11-19T00:02:20;5.95;;;3.85;;
79229;SDS011;68663;49.122;17.544;2023-11-19T00:04:46;4.22;;;3.40;;
79229;SDS011;68663;49.122;17.544;2023-11-19T00:07:12;5.50;;;3.58;;
79229;SDS011;68663;49.122;17.544;2023-11-19T00:09:39;4.40;;;3.50;;
79229;SDS011;68663;49.122;17.544;2023-11-19T00:12:04;4.70;;;3.90;;
79229;SDS011;68663;49.122;17.544;2023-11-19T00:14:30;5.60;;;3.72;;
79229;SDS011;68663;49.122;17.544;2023-11-19T00:16:56;8.73;;;4.30;;
79229;SDS011;68663;49.122;17.544;2023-11-19T00:19:21;4.38;;;3.30;;
79229;SDS011;68663;49.122;17.544;2023-11-19T00:21:47;4.80;;;3.55;;
79229;SDS011;68663;49.122;17.544;2023-11-19T00:24:13;4.55;;;3.55;;
79229;SDS011;68663;49.122;17.544;2023-11-19T00:26:41;4.88;;;3.45;;
79229;SDS011;68663;49.122;17.544;2023-11-19T00:29:06;5.07;;;4.05;;
79229;SDS011;68663;49.122;17.544;2023-11-19T00:31:32;5.68;;;4.40;;
79229;SDS011;68663;49.122;17.544;2023-11-19T00:33:58;4.85;;;3.60;;
79229;SDS011;68663;49.122;17.544;2023-11-19T00:36:23;5.25;;;3.83;;
79229;SDS011;68663;49.122;17.544;2023-11-19T00:38:49;5.03;;;3.90;;
79229;SDS011;68663;49.122;17.544;2023-11-19T00:41:15;4.60;;;3.65;;
79229;SDS011;68663;49.122;17.544;2023-11-19T00:43:43;4.47;;;3.50;;
79229;SDS011;68663;49.122;17.544;2023-11-19T00:46:09;4.50;;;3.65;;
79229;SDS011;68663;49.122;17.544;2023-11-19T00:48:36;4.75;;;3.35;;
79229;SDS011;68663;49.122;17.544;2023-11-19T00:51:01;4.70;;;3.60;;
79229;SDS011;68663;49.122;17.544;2023-11-19T00:53:27;5.00;;;3.53;;
79229;SDS011;68663;49.122;17.544;2023-11-19T00:55:52;5.07;;;3.63;;
79229;SDS011;68663;49.122;17.544;2023-11-19T00:58:18;4.83;;;3.40;;
79229;SDS011;68663;49.122;17.544;2023-11-19T01:00:43;4.13;;;3.42;;
79229;SDS011;68663;49.122;17.544;2023-11-19T01:03:10;4.03;;;3.25;;
79229;SDS011;68663;49.122;17.544;2023-11-19T01:05:36;5.32;;;4.07;;
79229;SDS011;68663;49.122;17.544;2023-11-19T01:08:02;5.40;;;3.80;;
79229;SDS011;68663;49.122;17.544;2023-11-19T01:10:29;5.18;;;3.60;;
79229;SDS011;68663;49.122;17.544;2023-11-19T01:12:55;3.72;;;3.05;;
79229;SDS011;68663;49.122;17.544;2023-11-19T01:15:21;4.75;;;3.60;;
79229;SDS011;68663;49.122;17.544;2023-11-19T01:17:46;4.57;;;3.42;;
79229;SDS011;68663;49.122;17.544;2023-11-19T01:20:11;3.55;;;2.92;;
79229;SDS011;68663;49.122;17.544;2023-11-19T01:22:38;4.38;;;3.42;;
79229;SDS011;68663;49.122;17.544;2023-11-19T01:25:04;4.47;;;3.22;;
79229;SDS011;68663;49.122;17.544;2023-11-19T01:27:31;4.55;;;3.55;;
79229;SDS011;68663;49.122;17.544;2023-11-19T01:29:56;5.07;;;3.53;;
79229;SDS011;68663;49.122;17.544;2023-11-19T01:32:22;4.43;;;3.83;;
79229;SDS011;68663;49.122;17.544;2023-11-19T01:34:49;4.30;;;3.30;;
79229;SDS011;68663;49.122;17.544;2023-11-19T01:37:14;4.65;;;3.13;;
79229;SDS011;68663;49.122;17.544;2023-11-19T01:39:40;4.80;;;3.65;;
79229;SDS011;68663;49.122;17.544;2023-11-19T01:42:08;4.82;;;3.58;;
79229;SDS011;68663;49.122;17.544;2023-11-19T01:44:33;4.38;;;3.28;;
79229;SDS011;68663;49.122;17.544;2023-11-19T01:46:59;4.85;;;3.38;;
79229;SDS011;68663;49.122;17.544;2023-11-19T01:49:25;4.38;;;3.47;;
79229;SDS011;68663;49.122;17.544;2023-11-19T01:51:51;3.80;;;3.20;;
79229;SDS011;68663;49.122;17.544;2023-11-19T01:54:16;5.15;;;3.70;;
79229;SDS011;68663;49.122;17.544;2023-11-19T01:56:42;5.13;;;3.78;;
79229;SDS011;68663;49.122;17.544;2023-11-19T01:59:08;4.18;;;3.15;;
79229;SDS011;68663;49.122;17.544;2023-11-19T02:01:35;3.85;;;3.05;;
79229;SDS011;68663;49.122;17.544;2023-11-19T02:04:04;4.13;;;3.20;;
79229;SDS011;68663;49.122;17.544;2023-11-19T02:06:31;4.95;;;3.53;;
79229;SDS011;68663;49.122;17.544;2023-11-19T02:08:58;4.50;;;3.30;;
79229;SDS011;68663;49.122;17.544;2023-11-19T02:11:23;3.43;;;2.90;;
79229;SDS011;68663;49.122;17.544;2023-11-19T02:13:54;4.68;;;3.63;;
79229;SDS011;68663;49.122;17.544;2023-11-19T02:16:20;4.32;;;3.25;;
79229;SDS011;68663;49.122;17.544;2023-11-19T02:18:45;4.00;;;3.30;;
79229;SDS011;68663;49.122;17.544;2023-11-19T02:21:10;4.90;;;3.28;;
79229;SDS011;68663;49.122;17.544;2023-11-19T02:23:36;4.72;;;3.40;;
79229;SDS011;68663;49.122;17.544;2023-11-19T02:26:03;3.63;;;2.97;;
79229;SDS011;68663;49.122;17.544;2023-11-19T02:28:39;4.57;;;3.00;;
79229;SDS011;68663;49.122;17.544;2023-11-19T02:31:05;4.60;;;3.33;;
79229;SDS011;68663;49.122;17.544;2023-11-19T02:33:34;3.70;;;3.10;;
79229;SDS011;68663;49.122;17.544;2023-11-19T02:36:01;4.55;;;3.30;;
79229;SDS011;68663;49.122;17.544;2023-11-19T02:38:28;4.18;;;3.65;;
79229;SDS011;68663;49.122;17.544;2023-11-19T02:40:55;3.90;;;3.20;;
79229;SDS011;68663;49.122;17.544;2023-11-19T02:43:21;3.95;;;3.25;;
79229;SDS011;68663;49.122;17.544;2023-11-19T02:45:47;4.03;;;3.17;;
79229;SDS011;68663;49.122;17.544;2023-11-19T02:48:12;3.20;;;2.60;;
79229;SDS011;68663;49.122;17.544;2023-11-19T02:50:39;4.05;;;2.95;;
79229;SDS011;68663;49.122;17.544;2023-11-19T02:53:06;4.15;;;3.30;;
79229;SDS011;68663;49.122;17.544;2023-11-19T02:55:31;3.88;;;3.00;;
79229;SDS011;68663;49.122;17.544;2023-11-19T02:58:02;4.68;;;3.42;;
79229;SDS011;68663;49.122;17.544;2023-11-19T03:04:02;4.00;;;2.90;;
79229;SDS011;68663;49.122;17.544;2023-11-19T03:06:29;4.30;;;3.28;;
79229;SDS011;68663;49.122;17.544;2023-11-19T03:08:54;3.95;;;3.28;;
79229;SDS011;68663;49.122;17.544;2023-11-19T03:11:20;4.47;;;3.15;;
79229;SDS011;68663;49.122;17.544;2023-11-19T03:13:46;3.75;;;3.22;;
79229;SDS011;68663;49.122;17.544;2023-11-19T03:16:12;3.78;;;3.22;;
79229;SDS011;68663;49.122;17.544;2023-11-19T03:18:37;4.28;;;3.55;;
79229;SDS011;68663;49.122;17.544;2023-11-19T03:21:05;3.72;;;3.05;;
79229;SDS011;68663;49.122;17.544;2023-11-19T03:23:31;3.45;;;2.95;;
79229;SDS011;68663;49.122;17.544;2023-11-19T03:25:56;3.70;;;3.03;;
79229;SDS011;68663;49.122;17.544;2023-11-19T03:28:22;3.67;;;2.95;;
79229;SDS011;68663;49.122;17.544;2023-11-19T03:30:47;3.55;;;2.90;;
79229;SDS011;68663;49.122;17.544;2023-11-19T03:33:13;3.80;;;3.00;;
79229;SDS011;68663;49.122;17.544;2023-11-19T03:35:38;3.28;;;2.97;;
79229;SDS011;68663;49.122;17.544;2023-11-19T03:38:06;3.90;;;3.25;;
79229;SDS011;68663;49.122;17.544;2023-11-19T03:40:31;3.65;;;3.00;;
79229;SDS011;68663;49.122;17.544;2023-11-19T03:42:57;3.85;;;2.80;;
79229;SDS011;68663;49.122;17.544;2023-11-19T03:45:23;3.88;;;2.80;;
79229;SDS011;68663;49.122;17.544;2023-11-19T03:47:49;3.75;;;3.20;;
79229;SDS011;68663;49.122;17.544;2023-11-19T03:50:15;4.70;;;3.05;;
79229;SDS011;68663;49.122;17.544;2023-11-19T03:52:41;4.25;;;2.90;;
79229;SDS011;68663;49.122;17.544;2023-11-19T03:55:06;3.78;;;3.08;;
79229;SDS011;68663;49.122;17.544;2023-11-19T03:57:33;3.60;;;2.85;;
79229;SDS011;68663;49.122;17.544;2023-11-19T03:59:59;4.10;;;2.78;;
79229;SDS011;68663;49.122;17.544;2023-11-19T04:02:25;3.70;;;2.90;;
79229;SDS011;68663;49.122;17.544;2023-11-19T04:04:53;3.83;;;2.80;;
79229;SDS011;68663;49.122;17.544;2023-11-19T04:07:19;3.85;;;3.13;;
79229;SDS011;68663;49.122;17.544;2023-11-19T04:09:45;3.67;;;2.83;;
79229;SDS011;68663;49.122;17.544;2023-11-19T04:12:11;3.47;;;2.75;;
79229;SDS011;68663;49.122;17.544;2023-11-19T04:14:37;3.53;;;3.13;;
79229;SDS011;68663;49.122;17.544;2023-11-19T04:17:02;3.30;;;2.72;;
79229;SDS011;68663;49.122;17.544;2023-11-19T04:19:28;3.47;;;2.65;;
79229;SDS011;68663;49.122;17.544;2023-11-19T04:21:53;4.07;;;3.33;;
79229;SDS011;68663;49.122;17.544;2023-11-19T04:24:19;3.13;;;2.60;;
79229;SDS011;68663;49.122;17.544;2023-11-19T04:26:44;3.72;;;2.83;;
79229;SDS011;68663;49.122;17.544;2023-11-19T04:29:14;3.58;;;2.70;;
79229;SDS011;68663;49.122;17.544;2023-11-19T04:31:40;3.53;;;2.92;;
79229;SDS011;68663;49.122;17.544;2023-11-19T04:34:06;3.85;;;2.75;;
79229;SDS011;68663;49.122;17.544;2023-11-19T04:36:32;3.25;;;2.78;;
79229;SDS011;68663;49.122;17.544;2023-11-19T04:38:58;3.90;;;2.92;;
79229;SDS011;68663;49.122;17.544;2023-11-19T04:41:27;3.53;;;2.70;;
79229;SDS011;68663;49.122;17.544;2023-11-19T04:43:53;3.13;;;2.75;;
79229;SDS011;68663;49.122;17.544;2023-11-19T04:46:19;4.03;;;2.95;;
79229;SDS011;68663;49.122;17.544;2023-11-19T04:48:45;4.05;;;2.95;;
79229;SDS011;68663;49.122;17.544;2023-11-19T04:51:10;3.33;;;2.65;;
79229;SDS011;68663;49.122;17.544;2023-11-19T04:53:36;3.13;;;2.60;;
79229;SDS011;68663;49.122;17.544;2023-11-19T04:56:06;3.90;;;2.83;;
79229;SDS011;68663;49.122;17.544;2023-11-19T04:58:32;3.97;;;3.15;;
79229;SDS011;68663;49.122;17.544;2023-11-19T05:00:59;3.40;;;2.58;;
79229;SDS011;68663;49.122;17.544;2023-11-19T05:03:24;3.85;;;2.95;;
79229;SDS011;68663;49.122;17.544;2023-11-19T05:05:49;3.53;;;2.80;;
79229;SDS011;68663;49.122;17.544;2023-11-19T05:08:15;3.40;;;2.67;;
79229;SDS011;68663;49.122;17.544;2023-11-19T05:10:40;4.65;;;3.13;;
79229;SDS011;68663;49.122;17.544;2023-11-19T05:13:06;3.47;;;2.60;;
79229;SDS011;68663;49.122;17.544;2023-11-19T05:15:31;4.07;;;2.77;;
79229;SDS011;68663;49.122;17.544;2023-11-19T05:17:58;3.53;;;2.90;;
79229;SDS011;68663;49.122;17.544;2023-11-19T05:20:23;3.17;;;2.53;;
79229;SDS011;68663;49.122;17.544;2023-11-19T05:22:48;3.40;;;2.57;;
79229;SDS011;68663;49.122;17.544;2023-11-19T05:25:16;3.95;;;3.00;;
79229;SDS011;68663;49.122;17.544;2023-11-19T05:27:41;3.08;;;2.65;;
79229;SDS011;68663;49.122;17.544;2023-11-19T05:30:07;3.60;;;2.80;;
79229;SDS011;68663;49.122;17.544;2023-11-19T05:32:33;3.70;;;2.63;;
79229;SDS011;68663;49.122;17.544;2023-11-19T05:34:58;3.13;;;2.30;;
79229;SDS011;68663;49.122;17.544;2023-11-19T05:37:24;3.28;;;2.50;;
79229;SDS011;68663;49.122;17.544;2023-11-19T05:39:50;3.75;;;2.90;;
79229;SDS011;68663;49.122;17.544;2023-11-19T05:42:16;3.10;;;2.40;;
79229;SDS011;68663;49.122;17.544;2023-11-19T05:44:42;3.50;;;3.00;;
79229;SDS011;68663;49.122;17.544;2023-11-19T05:47:07;3.00;;;2.63;;
79229;SDS011;68663;49.122;17.544;2023-11-19T05:49:33;3.70;;;3.10;;
79229;SDS011;68663;49.122;17.544;2023-11-19T05:51:58;3.27;;;2.67;;
79229;SDS011;68663;49.122;17.544;2023-11-19T05:54:24;3.88;;;2.80;;
79229;SDS011;68663;49.122;17.544;2023-11-19T05:56:49;3.08;;;2.60;;
79229;SDS011;68663;49.122;17.544;2023-11-19T05:59:15;3.78;;;2.67;;
79229;SDS011;68663;49.122;17.544;2023-11-19T06:01:43;3.33;;;2.50;;
79229;SDS011;68663;49.122;17.544;2023-11-19T06:04:09;3.38;;;2.72;;
79229;SDS011;68663;49.122;17.544;2023-11-19T06:06:35;3.70;;;2.83;;
79229;SDS011;68663;49.122;17.544;2023-11-19T06:09:01;3.15;;;2.50;;
79229;SDS011;68663;49.122;17.544;2023-11-19T06:11:27;3.13;;;2.60;;
79229;SDS011;68663;49.122;17.544;2023-11-19T06:13:52;3.25;;;2.60;;
79229;SDS011;68663;49.122;17.544;2023-11-19T06:16:18;3.95;;;2.85;;
79229;SDS011;68663;49.122;17.544;2023-11-19T06:18:43;3.75;;;2.90;;
79229;SDS011;68663;49.122;17.544;2023-11-19T06:21:09;2.60;;;2.28;;
79229;SDS011;68663;49.122;17.544;2023-11-19T06:23:35;3.30;;;2.67;;
79229;SDS011;68663;49.122;17.544;2023-11-19T06:26:01;2.92;;;2.58;;
79229;SDS011;68663;49.122;17.544;2023-11-19T06:28:26;3.20;;;2.40;;
79229;SDS011;68663;49.122;17.544;2023-11-19T06:30:52;2.78;;;2.38;;
79229;SDS011;68663;49.122;17.544;2023-11-19T06:33:17;3.92;;;2.65;;
79229;SDS011;68663;49.122;17.544;2023-11-19T06:35:43;4.63;;;2.40;;
79229;SDS011;68663;49.122;17.544;2023-11-19T06:38:08;3.10;;;2.28;;
79229;SDS011;68663;49.122;17.544;2023-11-19T06:40:34;2.80;;;2.30;;
79229;SDS011;68663;49.122;17.544;2023-11-19T06:43:02;3.15;;;2.17;;
79229;SDS011;68663;49.122;17.544;2023-11-19T06:45:29;2.70;;;2.03;;
79229;SDS011;68663;49.122;17.544;2023-11-19T06:47:55;3.40;;;2.40;;
79229;SDS011;68663;49.122;17.544;2023-11-19T06:50:20;3.08;;;2.55;;
79229;SDS011;68663;49.122;17.544;2023-11-19T06:52:46;3.30;;;2.70;;
79229;SDS011;68663;49.122;17.544;2023-11-19T06:55:12;3.17;;;2.35;;
79229;SDS011;68663;49.122;17.544;2023-11-19T06:57:38;3.63;;;2.47;;
79229;SDS011;68663;49.122;17.544;2023-11-19T07:00:03;4.18;;;2.22;;
79229;SDS011;68663;49.122;17.544;2023-11-19T07:02:30;4.30;;;2.22;;
79229;SDS011;68663;49.122;17.544;2023-11-19T07:04:56;4.10;;;2.40;;
79229;SDS011;68663;49.122;17.544;2023-11-19T07:07:22;2.63;;;2.13;;
79229;SDS011;68663;49.122;17.544;2023-11-19T07:09:47;6.13;;;3.17;;
79229;SDS011;68663;49.122;17.544;2023-11-19T07:12:13;4.65;;;2.63;;
79229;SDS011;68663;49.122;17.544;2023-11-19T07:14:39;4.15;;;2.60;;
79229;SDS011;68663;49.122;17.544;2023-11-19T07:17:05;4.30;;;2.30;;
79229;SDS011;68663;49.122;17.544;2023-11-19T07:19:31;4.70;;;2.47;;
79229;SDS011;68663;49.122;17.544;2023-11-19T07:21:56;4.22;;;2.35;;
79229;SDS011;68663;49.122;17.544;2023-11-19T07:24:22;5.03;;;2.60;;
79229;SDS011;68663;49.122;17.544;2023-11-19T07:26:47;3.33;;;2.50;;
79229;SDS011;68663;49.122;17.544;2023-11-19T07:29:13;2.90;;;2.35;;
79229;SDS011;68663;49.122;17.544;2023-11-19T07:31:41;3.60;;;2.75;;
79229;SDS011;68663;49.122;17.544;2023-11-19T07:34:09;5.63;;;2.30;;
79229;SDS011;68663;49.122;17.544;2023-11-19T07:36:35;6.35;;;2.50;;
79229;SDS011;68663;49.122;17.544;2023-11-19T07:39:01;5.45;;;2.47;;
79229;SDS011;68663;49.122;17.544;2023-11-19T07:41:27;4.43;;;2.58;;
79229;SDS011;68663;49.122;17.544;2023-11-19T07:43:52;3.67;;;2.15;;
79229;SDS011;68663;49.122;17.544;2023-11-19T07:46:18;4.22;;;2.47;;
79229;SDS011;68663;49.122;17.544;2023-11-19T07:48:46;9.35;;;2.53;;
79229;SDS011;68663;49.122;17.544;2023-11-19T07:51:12;2.78;;;2.25;;
79229;SDS011;68663;49.122;17.544;2023-11-19T07:53:38;3.95;;;2.30;;
79229;SDS011;68663;49.122;17.544;2023-11-19T07:56:05;5.60;;;2.42;;
79229;SDS011;68663;49.122;17.544;2023-11-19T07:58:31;5.70;;;2.80;;
79229;SDS011;68663;49.122;17.544;2023-11-19T08:00:57;3.40;;;2.17;;
79229;SDS011;68663;49.122;17.544;2023-11-19T08:03:22;3.93;;;2.87;;
79229;SDS011;68663;49.122;17.544;2023-11-19T08:05:48;3.70;;;2.60;;
79229;SDS011;68663;49.122;17.544;2023-11-19T08:08:13;4.30;;;2.65;;
79229;SDS011;68663;49.122;17.544;2023-11-19T08:10:39;4.53;;;2.55;;
79229;SDS011;68663;49.122;17.544;2023-11-19T08:13:05;3.50;;;2.30;;
79229;SDS011;68663;49.122;17.544;2023-11-19T08:15:31;5.68;;;2.33;;
79229;SDS011;68663;49.122;17.544;2023-11-19T08:17:57;4.45;;;2.45;;
79229;SDS011;68663;49.122;17.544;2023-11-19T08:20:22;7.07;;;2.40;;
79229;SDS011;68663;49.122;17.544;2023-11-19T08:22:48;3.83;;;2.53;;
79229;SDS011;68663;49.122;17.544;2023-11-19T08:25:14;3.28;;;2.67;;
79229;SDS011;68663;49.122;17.544;2023-11-19T08:27:39;4.63;;;2.58;;
79229;SDS011;68663;49.122;17.544;2023-11-19T08:30:05;5.38;;;2.92;;
79229;SDS011;68663;49.122;17.544;2023-11-19T08:32:34;4.55;;;2.53;;
79229;SDS011;68663;49.122;17.544;2023-11-19T08:34:59;4.18;;;2.80;;
79229;SDS011;68663;49.122;17.544;2023-11-19T08:37:25;4.47;;;3.20;;
79229;SDS011;68663;49.122;17.544;2023-11-19T08:39:50;4.18;;;2.72;;
79229;SDS011;68663;49.122;17.544;2023-11-19T08:42:16;5.05;;;2.50;;
79229;SDS011;68663;49.122;17.544;2023-11-19T08:44:42;3.55;;;2.45;;
79229;SDS011;68663;49.122;17.544;2023-11-19T08:47:12;3.60;;;2.47;;
79229;SDS011;68663;49.122;17.544;2023-11-19T08:49:38;6.25;;;2.67;;
79229;SDS011;68663;49.122;17.544;2023-11-19T08:52:04;4.95;;;2.92;;
79229;SDS011;68663;49.122;17.544;2023-11-19T08:54:32;3.88;;;2.70;;
79229;SDS011;68663;49.122;17.544;2023-11-19T08:56:58;6.57;;;2.88;;
79229;SDS011;68663;49.122;17.544;2023-11-19T08:59:24;5.70;;;2.78;;
79229;SDS011;68663;49.122;17.544;2023-11-19T09:01:49;4.22;;;2.78;;
79229;SDS011;68663;49.122;17.544;2023-11-19T09:04:15;6.07;;;3.13;;
79229;SDS011;68663;49.122;17.544;2023-11-19T09:06:41;4.05;;;2.78;;
79229;SDS011;68663;49.122;17.544;2023-11-19T09:09:07;11.88;;;2.92;;
79229;SDS011;68663;49.122;17.544;2023-11-19T09:11:33;4.57;;;2.75;;
79229;SDS011;68663;49.122;17.544;2023-11-19T09:13:58;4.38;;;2.78;;
79229;SDS011;68663;49.122;17.544;2023-11-19T09:16:24;3.83;;;2.20;;
79229;SDS011;68663;49.122;17.544;2023-11-19T09:18:50;7.68;;;3.05;;
79229;SDS011;68663;49.122;17.544;2023-11-19T09:21:16;5.13;;;2.75;;
79229;SDS011;68663;49.122;17.544;2023-11-19T09:23:41;3.65;;;2.70;;
79229;SDS011;68663;49.122;17.544;2023-11-19T09:26:08;4.18;;;2.50;;
79229;SDS011;68663;49.122;17.544;2023-11-19T09:28:35;3.95;;;2.85;;
79229;SDS011;68663;49.122;17.544;2023-11-19T09:31:00;3.38;;;2.58;;
79229;SDS011;68663;49.122;17.544;2023-11-19T09:33:29;3.72;;;2.95;;
79229;SDS011;68663;49.122;17.544;2023-11-19T09:35:54;4.72;;;2.42;;
79229;SDS011;68663;49.122;17.544;2023-11-19T09:38:20;5.25;;;2.25;;
79229;SDS011;68663;49.122;17.544;2023-11-19T09:40:46;5.00;;;2.47;;
79229;SDS011;68663;49.122;17.544;2023-11-19T09:43:11;3.88;;;2.38;;
79229;SDS011;68663;49.122;17.544;2023-11-19T09:45:44;3.33;;;2.35;;
79229;SDS011;68663;49.122;17.544;2023-11-19T09:48:18;11.75;;;3.05;;
79229;SDS011;68663;49.122;17.544;2023-11-19T09:50:45;7.20;;;2.88;;
79229;SDS011;68663;49.122;17.544;2023-11-19T09:53:12;16.85;;;3.33;;
79229;SDS011;68663;49.122;17.544;2023-11-19T09:55:38;17.95;;;3.92;;
79229;SDS011;68663;49.122;17.544;2023-11-19T09:58:03;8.07;;;3.58;;
79229;SDS011;68663;49.122;17.544;2023-11-19T10:00:31;7.68;;;2.95;;
79229;SDS011;68663;49.122;17.544;2023-11-19T10:02:57;8.88;;;3.22;;
79229;SDS011;68663;49.122;17.544;2023-11-19T10:05:24;7.03;;;3.08;;
79229;SDS011;68663;49.122;17.544;2023-11-19T10:07:51;8.45;;;3.00;;
79229;SDS011;68663;49.122;17.544;2023-11-19T10:10:17;4.72;;;2.72;;
79229;SDS011;68663;49.122;17.544;2023-11-19T10:12:45;4.63;;;2.78;;
79229;SDS011;68663;49.122;17.544;2023-11-19T10:15:17;6.55;;;3.45;;
79229;SDS011;68663;49.122;17.544;2023-11-19T10:17:46;8.15;;;3.30;;
79229;SDS011;68663;49.122;17.544;2023-11-19T10:20:12;7.28;;;2.85;;
79229;SDS011;68663;49.122;17.544;2023-11-19T10:22:37;5.15;;;3.70;;
79229;SDS011;68663;49.122;17.544;2023-11-19T10:25:03;9.15;;;3.80;;
79229;SDS011;68663;49.122;17.544;2023-11-19T10:27:29;10.25;;;3.70;;
79229;SDS011;68663;49.122;17.544;2023-11-19T10:29:57;31.65;;;9.80;;
79229;SDS011;68663;49.122;17.544;2023-11-19T10:32:24;14.13;;;5.55;;
79229;SDS011;68663;49.122;17.544;2023-11-19T10:34:50;9.68;;;7.00;;
79229;SDS011;68663;49.122;17.544;2023-11-19T10:37:33;10.25;;;7.55;;
79229;SDS011;68663;49.122;17.544;2023-11-19T10:40:02;9.80;;;8.65;;
79229;SDS011;68663;49.122;17.544;2023-11-19T10:42:30;10.88;;;8.38;;
79229;SDS011;68663;49.122;17.544;2023-11-19T10:44:55;12.75;;;10.35;;
79229;SDS011;68663;49.122;17.544;2023-11-19T10:47:22;17.00;;;11.00;;
79229;SDS011;68663;49.122;17.544;2023-11-19T10:49:47;30.95;;;16.30;;
79229;SDS011;68663;49.122;17.544;2023-11-19T10:52:15;31.08;;;17.45;;
79229;SDS011;68663;49.122;17.544;2023-11-19T10:54:48;32.97;;;19.05;;
79229;SDS011;68663;49.122;17.544;2023-11-19T10:57:17;28.70;;;16.45;;
79229;SDS011;68663;49.122;17.544;2023-11-19T10:59:45;21.08;;;12.88;;
79229;SDS011;68663;49.122;17.544;2023-11-19T11:02:12;16.52;;;10.50;;
79229;SDS011;68663;49.122;17.544;2023-11-19T11:04:44;12.57;;;8.13;;
79229;SDS011;68663;49.122;17.544;2023-11-19T11:07:12;15.27;;;8.80;;
79229;SDS011;68663;49.122;17.544;2023-11-19T11:09:41;10.55;;;7.50;;
79229;SDS011;68663;49.122;17.544;2023-11-19T11:12:06;13.40;;;8.20;;
79229;SDS011;68663;49.122;17.544;2023-11-19T11:14:35;11.60;;;7.35;;
79229;SDS011;68663;49.122;17.544;2023-11-19T11:17:03;12.15;;;6.28;;
79229;SDS011;68663;49.122;17.544;2023-11-19T11:19:32;14.02;;;6.75;;
79229;SDS011;68663;49.122;17.544;2023-11-19T11:21:59;10.80;;;6.55;;
79229;SDS011;68663;49.122;17.544;2023-11-19T11:24:35;13.73;;;6.45;;
79229;SDS011;68663;49.122;17.544;2023-11-19T11:32:43;9.45;;;5.63;;
79229;SDS011;68663;49.122;17.544;2023-11-19T11:37:55;11.90;;;5.40;;
79229;SDS011;68663;49.122;17.544;2023-11-19T11:40:26;10.65;;;5.57;;
79229;SDS011;68663;49.122;17.544;2023-11-19T11:42:52;9.63;;;6.15;;
79229;SDS011;68663;49.122;17.544;2023-11-19T11:45:18;11.68;;;5.40;;
79229;SDS011;68663;49.122;17.544;2023-11-19T11:50:19;44.88;;;12.80;;
79229;SDS011;68663;49.122;17.544;2023-11-19T11:55:23;30.80;;;10.95;;
79229;SDS011;68663;49.122;17.544;2023-11-19T11:57:49;41.97;;;10.88;;
79229;SDS011;68663;49.122;17.544;2023-11-19T12:00:21;31.75;;;9.85;;
79229;SDS011;68663;49.122;17.544;2023-11-19T12:02:48;39.92;;;11.82;;
79229;SDS011;68663;49.122;17.544;2023-11-19T12:05:14;29.30;;;9.05;;
79229;SDS011;68663;49.122;17.544;2023-11-19T12:07:39;24.92;;;9.05;;
79229;SDS011;68663;49.122;17.544;2023-11-19T12:10:09;29.90;;;9.07;;
79229;SDS011;68663;49.122;17.544;2023-11-19T12:12:37;25.33;;;8.68;;
79229;SDS011;68663;49.122;17.544;2023-11-19T12:15:06;31.05;;;9.20;;
79229;SDS011;68663;49.122;17.544;2023-11-19T12:17:42;22.75;;;7.82;;
79229;SDS011;68663;49.122;17.544;2023-11-19T12:20:14;17.90;;;7.95;;
79229;SDS011;68663;49.122;17.544;2023-11-19T12:22:42;24.73;;;8.07;;
79229;SDS011;68663;49.122;17.544;2023-11-19T12:25:09;21.50;;;7.43;;
79229;SDS011;68663;49.122;17.544;2023-11-19T12:27:37;21.13;;;7.90;;
79229;SDS011;68663;49.122;17.544;2023-11-19T12:30:04;23.95;;;8.77;;
79229;SDS011;68663;49.122;17.544;2023-11-19T12:32:46;21.73;;;7.32;;
79229;SDS011;68663;49.122;17.544;2023-11-19T12:35:11;21.60;;;8.05;;
79229;SDS011;68663;49.122;17.544;2023-11-19T12:37:47;16.60;;;6.80;;
79229;SDS011;68663;49.122;17.544;2023-11-19T12:40:17;15.15;;;6.65;;
79229;SDS011;68663;49.122;17.544;2023-11-19T12:42:47;20.92;;;7.30;;
79229;SDS011;68663;49.122;17.544;2023-11-19T12:45:14;17.45;;;6.78;;
79229;SDS011;68663;49.122;17.544;2023-11-19T12:47:41;19.27;;;6.85;;
79229;SDS011;68663;49.122;17.544;2023-11-19T12:50:07;18.27;;;7.82;;
79229;SDS011;68663;49.122;17.544;2023-11-19T12:52:34;18.85;;;6.72;;
79229;SDS011;68663;49.122;17.544;2023-11-19T12:55:23;14.65;;;6.72;;
79229;SDS011;68663;49.122;17.544;2023-11-19T12:57:50;18.08;;;6.95;;
79229;SDS011;68663;49.122;17.544;2023-11-19T13:00:19;16.85;;;7.32;;
79229;SDS011;68663;49.122;17.544;2023-11-19T13:05:28;15.45;;;6.70;;
79229;SDS011;68663;49.122;17.544;2023-11-19T13:07:58;16.20;;;6.13;;
79229;SDS011;68663;49.122;17.544;2023-11-19T13:10:49;17.35;;;6.78;;
79229;SDS011;68663;49.122;17.544;2023-11-19T13:13:16;15.13;;;6.22;;
79229;SDS011;68663;49.122;17.544;2023-11-19T13:15:42;15.95;;;6.60;;
79229;SDS011;68663;49.122;17.544;2023-11-19T13:18:09;16.08;;;6.45;;
79229;SDS011;68663;49.122;17.544;2023-11-19T13:20:35;14.00;;;6.38;;
79229;SDS011;68663;49.122;17.544;2023-11-19T13:23:01;13.40;;;6.20;;
79229;SDS011;68663;49.122;17.544;2023-11-19T13:25:28;14.93;;;6.20;;
79229;SDS011;68663;49.122;17.544;2023-11-19T13:27:54;13.80;;;6.57;;
79229;SDS011;68663;49.122;17.544;2023-11-19T13:30:21;15.27;;;7.05;;
79229;SDS011;68663;49.122;17.544;2023-11-19T13:32:50;13.68;;;6.60;;
79229;SDS011;68663;49.122;17.544;2023-11-19T13:35:16;14.50;;;5.97;;
79229;SDS011;68663;49.122;17.544;2023-11-19T13:37:44;12.00;;;5.60;;
79229;SDS011;68663;49.122;17.544;2023-11-19T13:40:10;15.35;;;6.78;;
79229;SDS011;68663;49.122;17.544;2023-11-19T13:47:43;11.18;;;6.10;;
79229;SDS011;68663;49.122;17.544;2023-11-19T13:50:10;14.77;;;6.53;;
79229;SDS011;68663;49.122;17.544;2023-11-19T13:52:37;10.10;;;5.72;;
79229;SDS011;68663;49.122;17.544;2023-11-19T13:55:04;15.25;;;5.63;;
79229;SDS011;68663;49.122;17.544;2023-11-19T13:57:40;23.85;;;6.45;;
79229;SDS011;68663;49.122;17.544;2023-11-19T14:00:07;10.38;;;5.55;;
79229;SDS011;68663;49.122;17.544;2023-11-19T14:02:44;17.38;;;6.03;;
79229;SDS011;68663;49.122;17.544;2023-11-19T14:05:10;10.13;;;4.95;;
79229;SDS011;68663;49.122;17.544;2023-11-19T14:07:37;13.20;;;6.10;;
79229;SDS011;68663;49.122;17.544;2023-11-19T14:10:06;8.95;;;4.93;;
79229;SDS011;68663;49.122;17.544;2023-11-19T14:15:00;9.18;;;4.97;;
79229;SDS011;68663;49.122;17.544;2023-11-19T14:17:26;14.35;;;6.80;;
79229;SDS011;68663;49.122;17.544;2023-11-19T14:19:51;12.68;;;10.05;;
79229;SDS011;68663;49.122;17.544;2023-11-19T14:22:17;13.48;;;12.05;;
79229;SDS011;68663;49.122;17.544;2023-11-19T14:24:42;14.55;;;12.27;;
79229;SDS011;68663;49.122;17.544;2023-11-19T14:27:10;12.93;;;10.35;;
79229;SDS011;68663;49.122;17.544;2023-11-19T14:29:36;11.40;;;9.68;;
79229;SDS011;68663;49.122;17.544;2023-11-19T14:32:01;10.50;;;9.40;;
79229;SDS011;68663;49.122;17.544;2023-11-19T14:34:28;8.68;;;7.32;;
79229;SDS011;68663;49.122;17.544;2023-11-19T14:36:54;6.55;;;5.75;;
79229;SDS011;68663;49.122;17.544;2023-11-19T14:39:20;6.97;;;6.30;;
79229;SDS011;68663;49.122;17.544;2023-11-19T14:41:45;5.57;;;4.93;;
79229;SDS011;68663;49.122;17.544;2023-11-19T14:44:11;5.75;;;4.97;;
79229;SDS011;68663;49.122;17.544;2023-11-19T14:46:36;6.13;;;5.18;;
79229;SDS011;68663;49.122;17.544;2023-11-19T14:49:02;5.85;;;5.25;;
79229;SDS011;68663;49.122;17.544;2023-11-19T14:51:29;4.90;;;4.40;;
79229;SDS011;68663;49.122;17.544;2023-11-19T14:53:54;5.97;;;4.78;;
79229;SDS011;68663;49.122;17.544;2023-11-19T14:56:20;4.80;;;4.10;;